Time;durP1;ratioP1;P1;durP2;ratioP2;P2;SDS_P1;SDS_P2;PMS_P1;PMS_P2;Temp;Humidity;BMP_temperature;BMP_pressure;BME280_temperature;BME280_humidity;BME280_pressure;Samples;Min_cycle;Max_cycle;Signal;HPM_P1;HPM_P2
2021/10/01 00:01:59;;;;;;;16.50;10.30;;;22.90;99.90;;;;;;5055800;28;20115;-47
2021/10/01 00:04:27;;;;;;;16.42;9.90;;;22.90;99.90;;;;;;5072373;28;20051;-47
2021/10/01 00:06:54;;;;;;;15.70;10.65;;;22.90;99.90;;;;;;5073143;28;20456;-50
2021/10/01 00:09:22;;;;;;;13.95;9.60;;;22.80;99.90;;;;;;5074823;28;20094;-47
2021/10/01 00:11:53;;;;;;;17.08;10.80;;;22.80;99.90;;;;;;5075631;28;20059;-48
2021/10/01 00:14:24;;;;;;;17.42;9.20;;;22.80;99.90;;;;;;5059049;28;20509;-48
2021/10/01 00:16:53;;;;;;;19.52;10.23;;;22.80;99.90;;;;;;5058989;28;20114;-47
2021/10/01 00:19:22;;;;;;;14.00;9.68;;;22.80;99.90;;;;;;5075503;28;20048;-47
2021/10/01 00:21:50;;;;;;;17.63;10.35;;;22.80;99.90;;;;;;5058995;28;20045;-47
2021/10/01 00:24:18;;;;;;;16.85;10.73;;;22.70;99.90;;;;;;5059143;28;20082;-49
2021/10/01 00:26:46;;;;;;;14.25;9.48;;;22.70;99.90;;;;;;5075696;28;20043;-48
2021/10/01 00:29:14;;;;;;;15.77;10.00;;;22.70;99.90;;;;;;5075596;28;20139;-47
2021/10/01 00:31:41;;;;;;;15.23;9.48;;;22.70;99.90;;;;;;5075618;28;20090;-48
2021/10/01 00:34:09;;;;;;;15.40;10.70;;;22.70;99.90;;;;;;5075280;28;20040;-47
2021/10/01 00:36:37;;;;;;;14.00;10.45;;;22.70;99.90;;;;;;5075660;28;20063;-47
2021/10/01 00:39:05;;;;;;;14.18;9.43;;;22.70;99.90;;;;;;5075189;28;20040;-48
2021/10/01 00:41:34;;;;;;;18.65;9.98;;;22.70;99.90;;;;;;5058605;28;20037;-48
2021/10/01 00:44:03;;;;;;;21.95;10.25;;;22.70;99.90;;;;;;5058610;28;20071;-47
2021/10/01 00:46:31;;;;;;;14.20;9.65;;;22.70;99.90;;;;;;5059008;28;20051;-47
2021/10/01 00:48:59;;;;;;;17.10;10.02;;;22.70;99.90;;;;;;5058483;28;20561;-47
2021/10/01 00:51:27;;;;;;;21.77;9.82;;;22.70;99.90;;;;;;5076517;28;20060;-47
2021/10/01 00:53:55;;;;;;;16.05;9.35;;;22.70;99.90;;;;;;5075021;28;20158;-47
2021/10/01 00:56:24;;;;;;;14.18;8.88;;;22.70;99.90;;;;;;5058284;28;20064;-47
2021/10/01 00:58:52;;;;;;;15.65;10.02;;;22.60;99.90;;;;;;5074917;28;20044;-47
2021/10/01 01:01:20;;;;;;;16.48;9.82;;;22.60;99.90;;;;;;5058089;28;20052;-47
2021/10/01 01:03:51;;;;;;;17.63;9.20;;;22.60;99.90;;;;;;5074916;28;20044;-47
2021/10/01 01:06:32;;;;;;;14.63;10.18;;;22.60;99.90;;;;;;5075019;28;20040;-51
2021/10/01 01:09:17;;;;;;;15.45;8.93;;;22.60;99.90;;;;;;5058293;28;20052;-49
2021/10/01 01:12:03;;;;;;;13.05;8.45;;;22.60;99.90;;;;;;5058041;28;20056;-47
2021/10/01 01:15:03;;;;;;;13.68;8.63;;;22.50;99.90;;;;;;5057974;28;20068;-48
2021/10/01 01:18:04;;;;;;;13.68;9.13;;;22.50;99.90;;;;;;5070310;28;20056;-47
2021/10/01 01:20:54;;;;;;;12.73;8.10;;;22.50;99.90;;;;;;5074765;28;20047;-47
2021/10/01 01:23:53;;;;;;;11.77;8.75;;;22.50;99.90;;;;;;5057698;28;20048;-48
2021/10/01 01:26:27;;;;;;;15.30;9.77;;;22.50;99.90;;;;;;5074603;28;20075;-48
2021/10/01 01:29:14;;;;;;;11.93;8.35;;;22.50;99.90;;;;;;5041408;28;20044;-47
2021/10/01 01:31:44;;;;;;;15.13;8.32;;;22.50;99.90;;;;;;5057622;28;20043;-47
2021/10/01 01:34:21;;;;;;;16.48;8.88;;;22.50;99.90;;;;;;5058014;28;20436;-47
2021/10/01 01:36:57;;;;;;;13.88;9.55;;;22.40;99.90;;;;;;5074249;28;20153;-47
2021/10/01 01:39:27;;;;;;;14.05;8.88;;;22.50;99.90;;;;;;5074224;28;20033;-47
2021/10/01 01:41:57;;;;;;;16.30;9.23;;;22.50;99.90;;;;;;5057337;28;20048;-47
2021/10/01 01:44:27;;;;;;;15.43;9.48;;;22.50;99.90;;;;;;5057389;28;20048;-48
2021/10/01 01:46:59;;;;;;;13.10;8.77;;;22.40;99.90;;;;;;5057449;28;20139;-48
2021/10/01 01:49:29;;;;;;;16.67;9.02;;;22.50;99.90;;;;;;5074149;28;20095;-47
2021/10/01 01:51:59;;;;;;;15.25;8.48;;;22.40;99.90;;;;;;5057251;28;20540;-47
2021/10/01 01:54:29;;;;;;;13.23;7.97;;;22.40;99.90;;;;;;5073971;28;20132;-48
2021/10/01 01:56:59;;;;;;;16.20;7.75;;;22.50;99.90;;;;;;5040862;28;20059;-48
2021/10/01 01:59:28;;;;;;;13.75;8.23;;;22.50;99.90;;;;;;5056852;28;20041;-47
2021/10/01 02:01:57;;;;;;;16.40;9.55;;;22.50;99.90;;;;;;5056778;28;20036;-47
2021/10/01 02:04:27;;;;;;;17.02;9.50;;;22.50;99.90;;;;;;5073548;28;20402;-47
2021/10/01 02:06:55;;;;;;;13.55;8.43;;;22.50;99.90;;;;;;5073819;28;20068;-48
2021/10/01 02:09:25;;;;;;;13.90;8.90;;;22.50;99.90;;;;;;5056905;28;20045;-47
2021/10/01 02:11:53;;;;;;;14.23;9.30;;;22.50;99.90;;;;;;5072777;28;20068;-48
2021/10/01 02:14:24;;;;;;;15.30;10.20;;;22.50;99.90;;;;;;5056724;28;20040;-48
2021/10/01 02:16:55;;;;;;;15.40;9.75;;;22.40;99.90;;;;;;5056996;28;20041;-47
2021/10/01 02:19:26;;;;;;;15.50;9.07;;;22.40;99.90;;;;;;5073398;28;20126;-47
2021/10/01 02:21:54;;;;;;;18.90;10.52;;;22.40;99.90;;;;;;5056586;28;20052;-47
2021/10/01 02:24:27;;;;;;;18.08;10.00;;;22.30;99.90;;;;;;5040098;28;20048;-48
2021/10/01 02:27:15;;;;;;;11.88;8.15;;;22.30;99.90;;;;;;5057550;28;20041;-47
2021/10/01 02:29:58;;;;;;;13.60;9.68;;;22.30;99.90;;;;;;5073647;28;20054;-47
2021/10/01 02:32:28;;;;;;;19.30;10.02;;;22.30;99.90;;;;;;5073210;28;20040;-47
2021/10/01 02:34:57;;;;;;;18.60;10.90;;;22.20;99.90;;;;;;5073230;28;20048;-47
2021/10/01 02:37:25;;;;;;;18.20;9.93;;;22.20;99.90;;;;;;5040021;28;20131;-47
2021/10/01 02:39:54;;;;;;;13.93;9.55;;;22.20;99.90;;;;;;5055707;28;20072;-47
2021/10/01 02:42:25;;;;;;;15.65;9.43;;;22.20;99.90;;;;;;5056242;28;20103;-48
2021/10/01 02:44:56;;;;;;;13.10;9.20;;;22.20;99.90;;;;;;5073078;28;20399;-48
2021/10/01 02:47:30;;;;;;;17.60;9.77;;;22.20;99.90;;;;;;5056004;28;20379;-47
2021/10/01 02:50:00;;;;;;;16.77;9.93;;;22.20;99.90;;;;;;5072845;28;20051;-47
2021/10/01 02:52:53;;;;;;;16.85;10.05;;;22.20;99.90;;;;;;5055928;28;20045;-47
2021/10/01 02:56:05;;;;;;;15.32;9.93;;;22.20;99.90;;;;;;5073656;28;20447;-47
2021/10/01 02:58:34;;;;;;;16.70;9.45;;;22.10;99.90;;;;;;5055883;28;20394;-48
2021/10/01 03:01:07;;;;;;;18.88;10.65;;;22.10;99.90;;;;;;5056182;28;20128;-47
2021/10/01 03:03:42;;;;;;;15.30;9.40;;;22.10;99.90;;;;;;5072661;28;20040;-47
2021/10/01 03:06:11;;;;;;;20.85;9.48;;;22.00;99.90;;;;;;5072597;28;20398;-50
2021/10/01 03:08:40;;;;;;;16.08;8.93;;;22.00;99.90;;;;;;5072914;28;20048;-47
2021/10/01 03:11:13;;;;;;;17.08;9.80;;;22.00;99.90;;;;;;5055437;28;20056;-47
2021/10/01 03:13:49;;;;;;;18.08;9.13;;;22.00;99.90;;;;;;5055803;28;20063;-47
2021/10/01 03:16:19;;;;;;;16.15;9.73;;;21.90;99.90;;;;;;5072552;28;20044;-47
2021/10/01 03:18:49;;;;;;;16.50;10.68;;;21.90;99.90;;;;;;5072457;28;20028;-47
2021/10/01 03:21:19;;;;;;;16.77;10.43;;;21.90;99.90;;;;;;5056065;28;20045;-47
2021/10/01 03:23:47;;;;;;;20.10;9.38;;;21.90;99.90;;;;;;5073567;28;20044;-47
2021/10/01 03:26:18;;;;;;;13.57;10.00;;;21.90;99.90;;;;;;5072669;28;20521;-47
2021/10/01 03:28:46;;;;;;;19.17;10.63;;;21.80;99.90;;;;;;5039180;28;20053;-46
2021/10/01 03:31:14;;;;;;;16.98;10.68;;;21.80;99.90;;;;;;5039009;28;20076;-47
2021/10/01 03:33:45;;;;;;;13.57;9.15;;;21.80;99.90;;;;;;5055918;28;20041;-47
2021/10/01 03:36:14;;;;;;;15.90;10.07;;;21.80;99.90;;;;;;5072405;28;20044;-48
2021/10/01 03:38:52;;;;;;;13.38;9.20;;;21.80;99.90;;;;;;5056079;28;20052;-47
2021/10/01 03:41:20;;;;;;;14.57;10.27;;;21.70;99.90;;;;;;5072343;28;20056;-48
2021/10/01 03:43:48;;;;;;;14.75;10.00;;;21.80;99.90;;;;;;5057800;28;20052;-48
2021/10/01 03:46:16;;;;;;;15.70;9.88;;;21.70;99.90;;;;;;5076315;28;20398;-47
2021/10/01 03:48:44;;;;;;;16.05;10.80;;;21.70;99.90;;;;;;5059823;28;20040;-47
2021/10/01 03:51:12;;;;;;;17.40;10.77;;;21.70;99.90;;;;;;5059666;28;20437;-47
2021/10/01 03:53:40;;;;;;;16.73;9.90;;;21.70;99.90;;;;;;5043098;28;20049;-47
2021/10/01 03:56:18;;;;;;;11.93;8.50;;;21.70;99.90;;;;;;5059795;28;20126;-48
2021/10/01 03:58:48;;;;;;;13.95;9.45;;;21.60;99.90;;;;;;5076126;28;20048;-47
2021/10/01 04:01:16;;;;;;;17.35;11.60;;;21.70;99.90;;;;;;5075955;28;20043;-47
2021/10/01 04:03:44;;;;;;;16.48;9.80;;;21.60;99.90;;;;;;5075910;28;20127;-48
2021/10/01 04:06:13;;;;;;;17.52;9.57;;;21.60;99.90;;;;;;5042933;28;20045;-47
2021/10/01 04:08:41;;;;;;;16.52;9.80;;;21.60;99.90;;;;;;5075893;28;20135;-47
2021/10/01 04:11:08;;;;;;;19.15;10.35;;;21.60;99.90;;;;;;5059000;28;20056;-48
2021/10/01 04:13:36;;;;;;;17.80;10.20;;;21.50;99.90;;;;;;5075910;28;20520;-47
2021/10/01 04:16:05;;;;;;;14.05;10.20;;;21.50;99.90;;;;;;5059021;28;20045;-47
2021/10/01 04:18:33;;;;;;;14.15;9.63;;;21.50;99.90;;;;;;5043004;28;20040;-48
2021/10/01 04:21:01;;;;;;;15.07;9.95;;;21.50;99.90;;;;;;5059067;28;20047;-48
2021/10/01 04:23:30;;;;;;;17.08;9.68;;;21.50;99.90;;;;;;5075580;28;20044;-49
2021/10/01 04:26:17;;;;;;;13.88;9.00;;;21.40;99.90;;;;;;5075926;28;20044;-47
2021/10/01 04:28:46;;;;;;;18.60;9.32;;;21.40;99.90;;;;;;5058713;28;20055;-47
2021/10/01 04:31:14;;;;;;;15.00;9.55;;;21.40;99.90;;;;;;5075505;28;20039;-47
2021/10/01 04:33:42;;;;;;;15.10;9.98;;;21.40;99.90;;;;;;5075569;28;20047;-47
2021/10/01 04:36:12;;;;;;;14.40;8.93;;;21.40;99.90;;;;;;5058993;28;20052;-48
2021/10/01 04:38:41;;;;;;;12.98;7.97;;;21.40;99.90;;;;;;5058684;28;20052;-47
2021/10/01 04:41:08;;;;;;;14.60;9.82;;;21.40;99.90;;;;;;5075367;28;20055;-47
2021/10/01 04:43:36;;;;;;;17.35;9.23;;;21.40;99.90;;;;;;5075199;28;20047;-47
2021/10/01 04:46:30;;;;;;;13.25;9.65;;;21.40;99.90;;;;;;5052359;28;20060;-47
2021/10/01 04:48:58;;;;;;;13.68;9.18;;;21.40;99.90;;;;;;5074811;28;20151;-48
2021/10/01 04:51:27;;;;;;;18.05;9.60;;;21.40;99.90;;;;;;5075058;28;20123;-47
2021/10/01 04:53:55;;;;;;;15.93;8.75;;;21.40;99.90;;;;;;5074679;28;20036;-47
2021/10/01 04:56:24;;;;;;;14.60;8.77;;;21.50;99.90;;;;;;5074047;28;20504;-47
2021/10/01 04:58:54;;;;;;;17.17;9.35;;;21.50;99.90;;;;;;5058501;28;20106;-47
2021/10/01 05:01:36;;;;;;;26.08;12.68;;;21.60;99.90;;;;;;5076240;28;20044;-47
2021/10/01 05:04:36;;;;;;;24.42;13.80;;;21.60;99.90;;;;;;5062522;28;20051;-47
2021/10/01 05:07:03;;;;;;;28.48;13.10;;;21.60;99.90;;;;;;5076094;28;20048;-47
2021/10/01 05:09:52;;;;;;;26.52;13.05;;;21.70;99.90;;;;;;5075069;28;20040;-47
2021/10/01 05:12:41;;;;;;;19.58;9.55;;;21.80;99.90;;;;;;5068166;28;20071;-47
2021/10/01 05:15:27;;;;;;;17.33;9.32;;;21.90;99.90;;;;;;5075307;28;20040;-47
2021/10/01 05:18:24;;;;;;;22.52;9.45;;;22.00;99.90;;;;;;5061751;28;20064;-48
2021/10/01 05:21:11;;;;;;;17.77;9.68;;;22.10;99.90;;;;;;5074700;28;20052;-48
2021/10/01 05:24:04;;;;;;;17.60;8.73;;;22.20;99.90;;;;;;5073629;28;20190;-47
2021/10/01 05:26:32;;;;;;;16.05;8.95;;;22.30;99.90;;;;;;5074558;28;20044;-47
2021/10/01 05:29:00;;;;;;;15.10;9.55;;;22.50;99.90;;;;;;5057869;28;20097;-47
2021/10/01 05:31:29;;;;;;;13.10;8.45;;;22.60;99.90;;;;;;5074286;28;20044;-48
2021/10/01 05:33:57;;;;;;;14.50;8.13;;;22.70;99.90;;;;;;5074555;28;20052;-47
2021/10/01 05:36:25;;;;;;;20.02;9.23;;;22.80;99.90;;;;;;5074437;28;20041;-47
2021/10/01 05:38:52;;;;;;;16.10;8.55;;;22.90;99.90;;;;;;5074243;28;20044;-47
2021/10/01 05:41:21;;;;;;;18.75;9.13;;;23.10;99.90;;;;;;5074171;28;20071;-48
2021/10/01 05:43:50;;;;;;;15.25;8.88;;;23.20;99.90;;;;;;5057397;28;20048;-48
2021/10/01 05:46:19;;;;;;;17.52;8.43;;;23.30;99.90;;;;;;5073970;28;20052;-47
2021/10/01 05:49:06;;;;;;;17.02;9.52;;;23.40;99.90;;;;;;5060758;28;20068;-47
2021/10/01 05:52:12;;;;;;;14.68;8.80;;;23.60;99.90;;;;;;5066235;28;20053;-48
2021/10/01 05:55:00;;;;;;;14.00;9.18;;;23.70;99.90;;;;;;5073754;28;20044;-47
2021/10/01 05:57:46;;;;;;;11.20;7.75;;;23.90;99.40;;;;;;5074351;28;20041;-47
2021/10/01 06:00:23;;;;;;;15.63;8.45;;;24.10;99.20;;;;;;5056966;28;20049;-47
2021/10/01 06:02:52;;;;;;;13.60;7.97;;;24.20;99.20;;;;;;5073577;28;20056;-47
2021/10/01 06:05:20;;;;;;;12.93;8.23;;;24.40;99.00;;;;;;5056583;28;20094;-47
2021/10/01 06:07:47;;;;;;;14.15;7.75;;;24.60;98.80;;;;;;5073694;28;20048;-47
2021/10/01 06:10:15;;;;;;;13.23;6.72;;;24.70;98.50;;;;;;5074944;28;20044;-48
2021/10/01 06:12:43;;;;;;;14.93;8.77;;;24.80;98.40;;;;;;5057293;28;20048;-47
2021/10/01 06:15:11;;;;;;;11.95;7.30;;;25.00;98.20;;;;;;5074628;28;20059;-48
2021/10/01 06:17:38;;;;;;;10.65;7.32;;;25.10;98.00;;;;;;5073617;28;20124;-47
2021/10/01 06:20:09;;;;;;;10.60;6.82;;;25.30;97.90;;;;;;5074611;28;20048;-47
2021/10/01 06:22:38;;;;;;;11.18;6.70;;;25.40;97.70;;;;;;5056764;28;20140;-48
2021/10/01 06:25:06;;;;;;;12.05;7.10;;;25.50;97.50;;;;;;5056868;28;20041;-47
2021/10/01 06:27:34;;;;;;;11.45;6.70;;;25.60;97.40;;;;;;5057000;28;20064;-47
2021/10/01 06:30:02;;;;;;;9.27;5.97;;;25.70;97.30;;;;;;5073298;28;20044;-48
2021/10/01 06:32:35;;;;;;;11.77;5.78;;;25.90;97.20;;;;;;5056530;28;20044;-48
2021/10/01 06:35:04;;;;;;;14.55;6.75;;;26.10;97.00;;;;;;5073328;28;20445;-47
2021/10/01 06:37:32;;;;;;;9.00;5.22;;;26.20;96.80;;;;;;5056506;28;20544;-47
2021/10/01 06:39:59;;;;;;;7.40;4.50;;;26.30;96.40;;;;;;5072987;28;20055;-47
2021/10/01 06:42:27;;;;;;;7.05;4.15;;;26.50;96.30;;;;;;5072790;28;20098;-48
2021/10/01 06:45:06;;;;;;;6.68;3.72;;;26.60;96.00;;;;;;5074438;28;20044;-47
2021/10/01 06:47:48;;;;;;;5.68;3.65;;;26.60;95.90;;;;;;5039834;28;20041;-48
2021/10/01 06:53:16;;;;;;;5.95;3.90;;;26.70;95.50;;;;;;5074017;28;20452;-51
2021/10/01 07:23:54;;;;;;;5.32;3.13;;;27.40;93.20;;;;;;5034072;28;20059;-48
2021/10/01 07:29:42;;;;;;;4.78;3.35;;;27.50;93.00;;;;;;5055586;28;20070;-49
2021/10/01 08:19:23;;;;;;;5.13;3.58;;;28.40;85.50;;;;;;5055173;28;20406;-49
2021/10/01 08:21:53;;;;;;;4.03;2.50;;;28.50;84.60;;;;;;5071868;28;20044;-47
2021/10/01 08:24:21;;;;;;;4.07;3.67;;;28.50;84.10;;;;;;5055151;28;20037;-47
2021/10/01 08:26:50;;;;;;;5.80;3.40;;;28.50;84.70;;;;;;5071862;28;20051;-49
2021/10/01 08:29:19;;;;;;;7.07;3.35;;;28.60;84.10;;;;;;5056173;28;20054;-48
2021/10/01 08:31:48;;;;;;;8.98;3.60;;;28.60;84.20;;;;;;5075614;28;20048;-48
2021/10/01 08:34:17;;;;;;;5.28;3.13;;;28.70;84.30;;;;;;5058556;28;20083;-47
2021/10/01 08:36:45;;;;;;;4.82;2.70;;;28.70;83.60;;;;;;5058913;28;20041;-47
2021/10/01 08:39:14;;;;;;;3.65;2.33;;;28.60;83.60;;;;;;5075372;28;20045;-48
2021/10/01 08:41:44;;;;;;;3.78;2.53;;;28.50;83.60;;;;;;5075398;28;20409;-48
2021/10/01 08:44:12;;;;;;;7.82;3.40;;;28.30;83.70;;;;;;5058910;28;20060;-47
2021/10/01 08:46:42;;;;;;;3.70;1.85;;;28.50;83.70;;;;;;5058428;28;20036;-48
2021/10/01 08:49:11;;;;;;;3.72;2.20;;;28.40;82.70;;;;;;5075314;28;20045;-51
2021/10/01 08:51:39;;;;;;;5.63;2.65;;;28.40;82.30;;;;;;5074954;28;20068;-47
2021/10/01 08:54:08;;;;;;;6.00;2.75;;;28.20;82.10;;;;;;5058471;28;20074;-47
2021/10/01 08:56:36;;;;;;;6.68;2.55;;;28.10;82.00;;;;;;5075093;28;20040;-47
2021/10/01 08:59:04;;;;;;;3.85;2.65;;;28.10;81.90;;;;;;5074830;28;20067;-47
2021/10/01 09:01:34;;;;;;;4.28;2.67;;;28.20;82.00;;;;;;5074839;28;20459;-48
2021/10/01 09:04:03;;;;;;;5.47;2.70;;;28.30;81.70;;;;;;5074847;28;20040;-47
2021/10/01 09:06:31;;;;;;;5.78;3.08;;;28.40;80.80;;;;;;5058162;28;20045;-47
2021/10/01 09:09:05;;;;;;;4.85;3.33;;;28.60;79.00;;;;;;5074962;28;20047;-48
2021/10/01 09:11:35;;;;;;;6.65;3.00;;;28.60;78.80;;;;;;5057891;28;20094;-47
2021/10/01 09:14:06;;;;;;;3.70;2.40;;;28.70;79.10;;;;;;5074590;28;20051;-47
2021/10/01 09:16:36;;;;;;;4.38;3.00;;;28.90;79.40;;;;;;5074693;28;20076;-47
2021/10/01 09:19:05;;;;;;;4.07;2.33;;;28.90;79.00;;;;;;5057927;28;20044;-48
2021/10/01 09:21:51;;;;;;;4.80;2.80;;;29.00;78.30;;;;;;5074445;28;20179;-49
2021/10/01 09:24:25;;;;;;;3.90;2.67;;;28.90;78.60;;;;;;5075594;28;20111;-47
2021/10/01 09:26:57;;;;;;;4.68;2.40;;;28.90;78.40;;;;;;5074821;28;20036;-48
2021/10/01 09:29:34;;;;;;;4.03;2.47;;;28.90;78.70;;;;;;5075689;28;20068;-48
2021/10/01 09:32:12;;;;;;;4.57;2.50;;;29.00;78.70;;;;;;5057652;28;20090;-47
2021/10/01 09:34:45;;;;;;;3.33;2.50;;;29.10;78.10;;;;;;5075491;28;20395;-48
2021/10/01 09:37:21;;;;;;;3.72;2.22;;;29.10;77.60;;;;;;5057894;28;20072;-48
2021/10/01 09:39:55;;;;;;;4.68;2.60;;;28.90;77.40;;;;;;5075343;28;20051;-48
2021/10/01 09:42:36;;;;;;;4.20;2.53;;;28.80;77.80;;;;;;5073560;28;20132;-48
2021/10/01 09:45:07;;;;;;;3.80;2.10;;;28.80;78.20;;;;;;5075430;28;20048;-47
2021/10/01 09:47:42;;;;;;;3.28;2.30;;;28.90;77.90;;;;;;5075341;28;20521;-47
2021/10/01 09:50:14;;;;;;;5.28;2.42;;;28.80;77.50;;;;;;5075371;28;20037;-47
2021/10/01 09:52:52;;;;;;;4.78;2.30;;;28.90;78.00;;;;;;5075142;28;20087;-47
2021/10/01 09:55:32;;;;;;;3.70;2.40;;;29.00;77.60;;;;;;5057485;28;20068;-48
2021/10/01 09:58:17;;;;;;;3.30;2.15;;;29.10;77.50;;;;;;5073747;28;20049;-48
2021/10/01 10:00:53;;;;;;;3.58;2.03;;;29.20;76.60;;;;;;5057181;28;20048;-48
2021/10/01 10:03:24;;;;;;;3.97;2.20;;;29.30;77.00;;;;;;5057130;28;20402;-47
2021/10/01 10:06:07;;;;;;;3.33;2.20;;;29.30;76.60;;;;;;5057180;28;20106;-47
2021/10/01 10:08:38;;;;;;;4.75;2.40;;;29.10;76.90;;;;;;5074882;28;20055;-48
2021/10/01 10:11:09;;;;;;;4.68;2.47;;;29.20;77.90;;;;;;5073500;28;20052;-47
2021/10/01 10:13:49;;;;;;;5.20;2.45;;;29.20;77.60;;;;;;5057140;28;20061;-47
2021/10/01 10:16:19;;;;;;;3.22;2.22;;;29.20;77.50;;;;;;5075094;28;20049;-50
2021/10/01 10:18:50;;;;;;;4.35;2.20;;;29.20;77.00;;;;;;5073373;28;20047;-48
2021/10/01 10:21:19;;;;;;;4.85;2.30;;;28.90;77.30;;;;;;5073210;28;20056;-49
2021/10/01 10:23:47;;;;;;;4.32;2.78;;;28.90;77.70;;;;;;5073490;28;20055;-47
2021/10/01 10:26:15;;;;;;;5.47;2.33;;;28.80;77.40;;;;;;5073231;28;20044;-47
2021/10/01 10:28:45;;;;;;;4.88;2.97;;;29.00;77.60;;;;;;5073221;28;20071;-49
2021/10/01 10:31:16;;;;;;;5.45;2.63;;;28.90;77.70;;;;;;5056659;28;20059;-49
2021/10/01 10:33:48;;;;;;;4.40;2.97;;;28.80;78.10;;;;;;5056566;28;20048;-48
2021/10/01 10:36:41;;;;;;;5.13;3.35;;;28.60;78.40;;;;;;5073374;28;20121;-48
2021/10/01 10:39:16;;;;;;;4.10;2.78;;;28.60;79.40;;;;;;5062353;28;20051;-47
2021/10/01 10:41:46;;;;;;;4.95;2.72;;;28.60;79.40;;;;;;5073064;28;20052;-47
2021/10/01 10:44:15;;;;;;;4.78;3.22;;;28.70;80.30;;;;;;5072923;28;20097;-47
2021/10/01 10:46:45;;;;;;;4.72;3.03;;;28.70;80.70;;;;;;5072869;28;20044;-47
2021/10/01 10:49:22;;;;;;;7.50;3.50;;;28.40;81.10;;;;;;5073135;28;20040;-47
2021/10/01 10:51:59;;;;;;;4.93;3.65;;;28.20;81.90;;;;;;5072830;28;20528;-49
2021/10/01 10:54:32;;;;;;;6.40;3.90;;;28.20;81.50;;;;;;5056168;28;20040;-47
2021/10/01 10:57:26;;;;;;;4.95;3.58;;;28.20;81.20;;;;;;5056227;28;20135;-47
2021/10/01 11:00:30;;;;;;;5.10;3.45;;;28.10;81.60;;;;;;5039775;28;20494;-47
2021/10/01 11:03:22;;;;;;;6.90;4.13;;;27.90;82.70;;;;;;5072593;28;20061;-47
2021/10/01 11:06:08;;;;;;;6.53;3.80;;;28.00;83.10;;;;;;5072986;28;20394;-48
2021/10/01 11:08:41;;;;;;;4.93;3.63;;;28.20;82.70;;;;;;5073841;28;20043;-49
2021/10/01 11:11:28;;;;;;;9.00;3.65;;;28.20;82.30;;;;;;5072228;28;20060;-49
2021/10/01 11:14:22;;;;;;;6.93;4.10;;;28.20;80.10;;;;;;5073891;28;20083;-48
2021/10/01 11:16:52;;;;;;;5.03;3.20;;;28.20;79.60;;;;;;5072654;28;20049;-47
2021/10/01 11:19:40;;;;;;;6.25;3.42;;;28.30;80.00;;;;;;5039361;28;20056;-48
2021/10/01 11:22:29;;;;;;;5.80;3.20;;;28.20;81.30;;;;;;5072559;28;20490;-47
2021/10/01 11:25:17;;;;;;;5.32;2.90;;;28.20;82.20;;;;;;5056939;28;20426;-47
2021/10/01 11:27:54;;;;;;;6.30;3.08;;;28.20;82.20;;;;;;5073569;28;20136;-48
2021/10/01 11:30:23;;;;;;;5.40;3.17;;;28.00;79.90;;;;;;5073414;28;20486;-47
2021/10/01 11:32:51;;;;;;;5.38;3.35;;;28.10;80.20;;;;;;5073438;28;20198;-48
2021/10/01 11:35:20;;;;;;;5.63;2.92;;;28.10;79.80;;;;;;5072455;28;20102;-48
2021/10/01 11:37:50;;;;;;;4.45;2.50;;;28.10;78.60;;;;;;5055629;28;20089;-48
2021/10/01 11:40:25;;;;;;;5.57;2.63;;;28.10;78.30;;;;;;5073371;28;20055;-48
2021/10/01 11:42:55;;;;;;;3.75;2.40;;;28.00;77.10;;;;;;5073362;28;20045;-49
2021/10/01 11:45:27;;;;;;;3.25;2.30;;;27.90;77.90;;;;;;5055388;28;20044;-47
2021/10/01 11:48:08;;;;;;;4.72;2.38;;;27.90;77.70;;;;;;5055444;28;20090;-48
2021/10/01 11:50:41;;;;;;;3.58;2.13;;;27.90;77.80;;;;;;5055617;28;20050;-48
2021/10/01 11:53:24;;;;;;;3.05;1.92;;;28.00;78.40;;;;;;5072023;28;20051;-48
2021/10/01 11:55:54;;;;;;;3.20;2.17;;;27.90;73.10;;;;;;5073766;28;20044;-48
2021/10/01 11:58:24;;;;;;;3.08;2.20;;;27.80;73.10;;;;;;5055504;28;20052;-47
2021/10/01 12:00:52;;;;;;;3.50;2.20;;;27.80;74.60;;;;;;5072142;28;20698;-47
2021/10/01 12:03:21;;;;;;;8.27;2.60;;;27.80;77.20;;;;;;5072041;28;20051;-48
2021/10/01 12:05:54;;;;;;;4.50;2.72;;;27.80;76.40;;;;;;5075544;28;20040;-48
2021/10/01 12:08:23;;;;;;;4.93;2.55;;;27.80;75.60;;;;;;5059460;28;20041;-47
2021/10/01 12:10:54;;;;;;;5.40;2.72;;;27.80;75.60;;;;;;5059338;28;20044;-48
2021/10/01 12:13:33;;;;;;;4.75;2.85;;;27.90;74.80;;;;;;5075906;28;20177;-47
2021/10/01 12:16:04;;;;;;;4.93;3.38;;;28.00;73.40;;;;;;5059285;28;20058;-48
2021/10/01 12:18:32;;;;;;;5.63;3.10;;;27.90;72.70;;;;;;5059119;28;20040;-47
2021/10/01 12:21:05;;;;;;;3.78;2.88;;;27.90;73.30;;;;;;5076805;28;20044;-47
2021/10/01 12:23:37;;;;;;;5.00;2.65;;;27.90;73.70;;;;;;5075585;28;20060;-48
2021/10/01 12:26:16;;;;;;;4.55;2.83;;;27.90;73.20;;;;;;5058931;28;20044;-47
2021/10/01 12:28:57;;;;;;;3.88;2.53;;;27.90;72.20;;;;;;5058630;28;20040;-47
2021/10/01 12:31:33;;;;;;;3.60;2.47;;;27.90;71.30;;;;;;5059091;28;20472;-47
2021/10/01 12:34:03;;;;;;;5.03;3.13;;;27.70;71.00;;;;;;5076703;28;20090;-48
2021/10/01 12:36:31;;;;;;;4.90;2.97;;;27.70;72.50;;;;;;5058815;28;20094;-47
2021/10/01 12:39:00;;;;;;;4.85;3.28;;;27.60;72.60;;;;;;5075422;28;20094;-49
2021/10/01 12:41:29;;;;;;;6.43;3.58;;;27.40;71.50;;;;;;5058525;28;20051;-47
2021/10/01 12:44:01;;;;;;;4.13;2.72;;;27.40;72.30;;;;;;5058795;28;20139;-49
2021/10/01 12:46:36;;;;;;;5.07;3.20;;;27.40;74.00;;;;;;5058643;28;20087;-48
2021/10/01 12:49:23;;;;;;;4.65;2.67;;;27.40;74.60;;;;;;5075404;28;20403;-48
2021/10/01 12:52:00;;;;;;;3.88;2.40;;;27.40;73.90;;;;;;5075065;28;20072;-48
2021/10/01 12:54:31;;;;;;;4.57;2.63;;;27.40;73.80;;;;;;5058503;28;20071;-48
2021/10/01 12:57:31;;;;;;;4.47;2.92;;;27.40;71.60;;;;;;5075162;28;20048;-47
2021/10/01 13:00:02;;;;;;;3.83;2.42;;;27.30;71.60;;;;;;5074913;28;20102;-49
2021/10/01 13:02:50;;;;;;;5.72;2.95;;;27.40;71.90;;;;;;5075914;28;20431;-48
2021/10/01 13:05:19;;;;;;;5.35;2.70;;;27.30;72.40;;;;;;5058355;28;20044;-48
2021/10/01 13:08:14;;;;;;;4.88;2.38;;;27.30;73.00;;;;;;5058350;28;20051;-48
2021/10/01 13:11:01;;;;;;;4.57;2.83;;;27.30;72.50;;;;;;5075699;28;20052;-47
2021/10/01 13:13:34;;;;;;;4.53;3.08;;;27.20;72.30;;;;;;5076063;28;20049;-49
2021/10/01 13:16:13;;;;;;;4.88;3.13;;;27.10;72.20;;;;;;5073591;28;20049;-48
2021/10/01 13:18:41;;;;;;;5.30;3.58;;;26.90;72.40;;;;;;5076014;28;20052;-47
2021/10/01 13:21:21;;;;;;;7.78;2.88;;;26.80;72.80;;;;;;5074520;28;20139;-48
2021/10/01 13:23:56;;;;;;;4.28;2.95;;;26.80;72.90;;;;;;5075803;28;20568;-48
2021/10/01 13:26:55;;;;;;;4.93;2.75;;;26.90;72.20;;;;;;5074739;28;20486;-50
2021/10/01 13:29:23;;;;;;;5.28;2.97;;;26.90;72.70;;;;;;5041331;28;20141;-47
2021/10/01 13:31:53;;;;;;;5.10;2.83;;;26.80;74.10;;;;;;5074264;28;20044;-47
2021/10/01 13:34:23;;;;;;;5.22;2.90;;;26.90;75.10;;;;;;5074321;28;20048;-50
2021/10/01 13:36:50;;;;;;;4.93;3.53;;;26.80;75.40;;;;;;5074370;28;20047;-48
2021/10/01 13:39:18;;;;;;;4.18;2.83;;;26.80;75.20;;;;;;5074400;28;20128;-47
2021/10/01 13:41:46;;;;;;;4.20;2.85;;;26.60;73.70;;;;;;5074214;28;20128;-47
2021/10/01 13:44:15;;;;;;;5.13;2.75;;;26.60;74.30;;;;;;5075241;28;20062;-50
2021/10/01 13:46:42;;;;;;;6.13;2.83;;;26.60;75.90;;;;;;5057600;28;20414;-50
2021/10/01 13:49:10;;;;;;;6.82;3.08;;;26.60;75.00;;;;;;5075324;28;20093;-48
2021/10/01 13:51:38;;;;;;;4.40;2.53;;;26.60;73.20;;;;;;5057424;28;20144;-50
2021/10/01 13:54:05;;;;;;;4.32;2.50;;;26.60;73.80;;;;;;5075159;28;20052;-48
2021/10/01 13:56:33;;;;;;;4.85;3.00;;;26.50;73.70;;;;;;5073854;28;20122;-53
2021/10/01 13:59:01;;;;;;;4.28;3.13;;;26.50;73.30;;;;;;5073684;28;20048;-48
2021/10/01 14:01:28;;;;;;;4.05;2.42;;;26.40;72.00;;;;;;5074886;28;20055;-49
2021/10/01 14:03:56;;;;;;;4.28;2.50;;;26.50;71.80;;;;;;5073757;28;20041;-48
2021/10/01 14:06:24;;;;;;;4.82;2.88;;;26.40;72.70;;;;;;5073689;28;20052;-51
2021/10/01 14:08:51;;;;;;;5.13;3.10;;;26.40;73.60;;;;;;5073705;28;20131;-49
2021/10/01 14:11:19;;;;;;;4.68;2.83;;;26.50;71.90;;;;;;5073527;28;20053;-48
2021/10/01 14:13:47;;;;;;;6.28;2.90;;;26.30;71.60;;;;;;5074790;28;20051;-49
2021/10/01 14:16:14;;;;;;;4.68;2.88;;;26.30;72.50;;;;;;5074559;28;20045;-49
2021/10/01 14:18:42;;;;;;;5.55;2.83;;;26.20;72.80;;;;;;5073645;28;20491;-52
2021/10/01 14:21:10;;;;;;;4.93;3.28;;;26.10;73.20;;;;;;5073466;28;20055;-50
2021/10/01 14:23:38;;;;;;;5.80;3.25;;;26.10;74.80;;;;;;5073271;28;20090;-49
2021/10/01 14:26:05;;;;;;;4.90;3.17;;;26.10;75.20;;;;;;5073282;28;20502;-50
2021/10/01 14:28:33;;;;;;;5.00;3.10;;;26.10;75.70;;;;;;5073983;28;20048;-50
2021/10/01 14:31:01;;;;;;;3.83;2.53;;;26.10;76.60;;;;;;5073165;28;20052;-52
2021/10/01 14:33:29;;;;;;;7.30;3.20;;;26.10;75.80;;;;;;5073316;28;20242;-48